createdAt,value
2023-05-13T00:00:25.371Z,16.07
2023-05-13T00:02:52.297Z,15.93
2023-05-13T00:05:18.713Z,15.92
2023-05-13T00:07:45.114Z,15.97
2023-05-13T00:10:11.869Z,15.90
2023-05-13T00:12:38.262Z,15.76
2023-05-13T00:15:05.154Z,15.89
2023-05-13T00:17:31.574Z,15.69
2023-05-13T00:19:58.067Z,15.77
2023-05-13T00:22:24.475Z,15.76
2023-05-13T00:24:50.881Z,15.61
2023-05-13T00:27:17.235Z,15.68
2023-05-13T00:29:43.630Z,15.71
2023-05-13T00:32:10.042Z,15.68
2023-05-13T00:34:36.400Z,15.64
2023-05-13T00:37:02.866Z,15.59
2023-05-13T00:39:29.285Z,15.46
2023-05-13T00:41:55.760Z,15.44
2023-05-13T00:44:22.195Z,15.55
2023-05-13T00:46:49.777Z,15.52
2023-05-13T00:49:16.386Z,15.48
2023-05-13T00:51:43.087Z,15.42
2023-05-13T00:54:09.449Z,15.53
2023-05-13T00:56:38.128Z,15.41
2023-05-13T00:59:04.875Z,15.42
2023-05-13T01:01:50.417Z,15.56
2023-05-13T01:04:36.542Z,15.44
2023-05-13T01:07:25.448Z,15.55
2023-05-13T01:10:13.548Z,15.46
2023-05-13T01:12:45.225Z,15.62
2023-05-13T01:15:15.766Z,15.59
2023-05-13T01:17:50.522Z,15.67
2023-05-13T01:20:22.453Z,15.49
2023-05-13T01:22:49.683Z,15.72
2023-05-13T01:25:16.422Z,15.47
2023-05-13T01:27:42.829Z,15.46
2023-05-13T01:30:10.192Z,15.56
2023-05-13T01:32:38.098Z,15.46
2023-05-13T01:35:05.990Z,15.44
2023-05-13T01:41:19.305Z,15.24
2023-05-13T01:43:45.730Z,15.30
2023-05-13T01:46:13.242Z,15.36
2023-05-13T01:48:39.663Z,15.27
2023-05-13T01:51:06.601Z,15.28
2023-05-13T01:53:32.957Z,15.22
2023-05-13T01:55:59.615Z,15.15
2023-05-13T01:58:25.973Z,15.25
2023-05-13T02:00:52.348Z,15.29
2023-05-13T02:03:19.152Z,15.22
2023-05-13T02:05:46.721Z,15.04
2023-05-13T02:08:13.131Z,14.98
2023-05-13T02:10:39.637Z,14.86
2023-05-13T02:13:06.042Z,15.03
2023-05-13T02:15:32.399Z,15.05
2023-05-13T02:17:58.799Z,14.98
2023-05-13T02:20:26.365Z,14.96
2023-05-13T02:22:52.731Z,14.91
2023-05-13T02:25:19.166Z,15.10
2023-05-13T02:27:45.522Z,15.00
2023-05-13T02:30:12.841Z,14.83
2023-05-13T02:32:42.759Z,14.88
2023-05-13T02:35:10.288Z,14.75
2023-05-13T02:37:36.857Z,14.67
2023-05-13T02:40:03.475Z,14.57
2023-05-13T02:42:29.890Z,14.71
2023-05-13T02:44:56.237Z,14.63
2023-05-13T02:47:22.794Z,14.55
2023-05-13T02:49:49.217Z,14.48
2023-05-13T02:52:15.590Z,14.53
2023-05-13T02:54:41.976Z,14.51
2023-05-13T02:57:08.384Z,14.47
2023-05-13T02:59:34.755Z,14.54
2023-05-13T03:02:01.114Z,14.50
2023-05-13T03:04:27.468Z,14.57
2023-05-13T03:06:53.835Z,14.58
2023-05-13T03:09:20.331Z,14.45
2023-05-13T03:11:46.955Z,14.66
2023-05-13T03:14:13.329Z,14.66
2023-05-13T03:16:39.791Z,14.62
2023-05-13T03:19:06.253Z,14.58
2023-05-13T03:21:32.706Z,14.50
2023-05-13T03:23:59.093Z,14.41
2023-05-13T03:26:26.021Z,14.51
2023-05-13T03:28:52.379Z,14.53
2023-05-13T03:31:18.820Z,14.61
2023-05-13T03:33:45.227Z,14.52
2023-05-13T03:36:11.599Z,14.36
2023-05-13T03:38:37.968Z,14.37
2023-05-13T03:41:04.340Z,14.22
2023-05-13T03:43:30.724Z,14.22
2023-05-13T03:45:57.166Z,14.26
2023-05-13T03:48:23.546Z,14.17
2023-05-13T03:50:49.952Z,14.22
2023-05-13T03:53:17.190Z,14.28
2023-05-13T03:55:43.554Z,14.27
2023-05-13T03:58:14.738Z,14.14
2023-05-13T04:00:42.286Z,14.17
2023-05-13T04:03:10.546Z,14.33
2023-05-13T04:05:36.982Z,14.26
2023-05-13T04:08:03.372Z,14.31
2023-05-13T04:10:29.746Z,14.41
2023-05-13T04:12:56.310Z,14.38
2023-05-13T04:15:22.686Z,14.51
2023-05-13T04:17:49.088Z,14.25
2023-05-13T04:20:15.524Z,14.19
2023-05-13T04:22:41.893Z,14.37
2023-05-13T04:25:08.744Z,14.26
2023-05-13T04:27:35.142Z,14.26
2023-05-13T04:30:01.784Z,14.32
2023-05-13T04:32:28.264Z,14.27
2023-05-13T04:34:54.933Z,14.38
2023-05-13T04:37:21.317Z,14.52
2023-05-13T04:39:48.350Z,14.58
2023-05-13T04:42:15.266Z,14.57
2023-05-13T04:44:41.664Z,14.56
2023-05-13T04:47:08.202Z,14.54
2023-05-13T04:49:34.718Z,14.51
2023-05-13T04:52:03.175Z,14.65
2023-05-13T04:54:29.615Z,14.67
2023-05-13T04:56:56.382Z,14.61
2023-05-13T04:59:22.895Z,14.78
2023-05-13T05:01:49.385Z,14.71
2023-05-13T05:04:16.046Z,14.66
2023-05-13T05:06:42.497Z,14.93
2023-05-13T05:09:09.510Z,14.90
2023-05-13T05:11:35.901Z,14.82
2023-05-13T05:14:02.448Z,15.00
2023-05-13T05:16:28.874Z,14.86
2023-05-13T05:18:55.523Z,14.98
2023-05-13T05:21:22.056Z,15.04
2023-05-13T05:23:48.510Z,15.11
2023-05-13T05:26:14.881Z,15.08
2023-05-13T05:28:42.412Z,15.03
2023-05-13T05:31:09.747Z,15.10
2023-05-13T05:33:36.836Z,15.22
2023-05-13T05:36:03.548Z,15.22
2023-05-13T05:38:29.897Z,15.32
2023-05-13T05:40:56.365Z,15.30
2023-05-13T05:43:22.729Z,15.46
2023-05-13T05:45:49.222Z,15.58
2023-05-13T05:48:15.779Z,15.58
2023-05-13T05:50:42.211Z,15.67
2023-05-13T05:53:08.582Z,15.75
2023-05-13T05:55:34.966Z,15.71
2023-05-13T05:58:05.485Z,15.79
2023-05-13T06:00:33.137Z,15.85
2023-05-13T06:02:59.742Z,15.90
2023-05-13T06:05:26.290Z,15.92
2023-05-13T06:07:52.685Z,16.12
2023-05-13T06:10:19.331Z,16.08
2023-05-13T06:12:45.907Z,16.03
2023-05-13T06:15:12.406Z,16.16
2023-05-13T06:17:39.458Z,16.17
2023-05-13T06:20:06.598Z,16.31
2023-05-13T06:22:33.087Z,16.42
2023-05-13T06:24:59.492Z,16.36
2023-05-13T06:27:25.924Z,16.38
2023-05-13T06:29:52.330Z,16.40
2023-05-13T06:32:18.791Z,16.49
2023-05-13T06:34:45.905Z,16.61
2023-05-13T06:37:13.603Z,16.64
2023-05-13T06:39:41.189Z,16.55
2023-05-13T06:42:07.588Z,16.61
2023-05-13T06:44:34.018Z,16.70
2023-05-13T06:47:02.825Z,16.85
2023-05-13T06:49:29.363Z,16.94
2023-05-13T06:51:55.735Z,16.87
2023-05-13T06:54:22.121Z,16.97
2023-05-13T06:56:48.576Z,17.14
2023-05-13T06:59:15.320Z,17.02
2023-05-13T07:01:42.260Z,17.25
2023-05-13T07:04:08.752Z,17.36
2023-05-13T07:06:35.886Z,17.31
2023-05-13T07:09:07.988Z,17.36
2023-05-13T07:11:35.349Z,17.41
2023-05-13T07:14:01.842Z,17.26
2023-05-13T07:16:28.198Z,17.44
2023-05-13T07:18:54.618Z,17.50
2023-05-13T07:21:21.743Z,17.36
2023-05-13T07:23:48.100Z,17.49
2023-05-13T07:26:14.458Z,17.59
2023-05-13T07:28:40.847Z,17.65
2023-05-13T07:31:07.502Z,17.72
2023-05-13T07:33:34.031Z,17.71
2023-05-13T07:36:00.410Z,17.72
2023-05-13T07:38:26.774Z,17.86
2023-05-13T07:40:53.245Z,18.00
2023-05-13T07:43:23.776Z,17.92
2023-05-13T07:45:51.325Z,18.08
2023-05-13T07:48:18.533Z,18.10
2023-05-13T07:50:45.801Z,18.19
2023-05-13T07:53:12.352Z,18.31
2023-05-13T07:55:38.745Z,18.27
2023-05-13T07:58:06.382Z,18.25
2023-05-13T08:00:32.878Z,18.34
2023-05-13T08:03:03.537Z,18.32
2023-05-13T08:05:30.068Z,18.50
2023-05-13T08:07:56.444Z,18.51
2023-05-13T08:10:22.830Z,18.56
2023-05-13T08:12:53.591Z,18.60
2023-05-13T08:15:20.041Z,18.63
2023-05-13T08:17:46.559Z,18.64
2023-05-13T08:20:15.052Z,18.81
2023-05-13T08:22:42.899Z,18.59
2023-05-13T08:25:11.196Z,18.83
2023-05-13T08:27:37.603Z,18.93
2023-05-13T08:30:05.471Z,18.89
2023-05-13T08:32:31.900Z,18.86
2023-05-13T08:34:58.500Z,18.97
2023-05-13T08:37:24.873Z,18.88
2023-05-13T08:39:51.368Z,19.04
2023-05-13T08:42:21.663Z,19.09
2023-05-13T08:44:49.058Z,19.29
2023-05-13T08:47:53.184Z,19.12
2023-05-13T08:50:20.467Z,19.29
2023-05-13T08:52:47.117Z,19.30
2023-05-13T08:55:13.848Z,19.61
2023-05-13T08:57:40.216Z,19.47
2023-05-13T09:00:08.589Z,19.56
2023-05-13T09:02:35.012Z,19.71
2023-05-13T09:05:06.455Z,19.87
2023-05-13T09:07:34.041Z,19.80
2023-05-13T09:10:00.619Z,19.78
2023-05-13T09:12:46.682Z,19.71
2023-05-13T09:15:15.697Z,20.08
2023-05-13T09:17:43.887Z,20.03
2023-05-13T09:20:15.264Z,19.97
2023-05-13T09:23:01.673Z,20.06
2023-05-13T09:25:28.924Z,20.07
2023-05-13T09:28:00.914Z,20.28
2023-05-13T09:30:33.326Z,20.17
2023-05-13T09:33:11.481Z,20.48
2023-05-13T09:35:40.283Z,20.41
2023-05-13T09:38:15.065Z,20.35
2023-05-13T09:40:42.165Z,20.46
2023-05-13T09:43:08.675Z,20.46
2023-05-13T09:45:36.116Z,20.70
2023-05-13T09:48:03.231Z,20.78
2023-05-13T09:50:31.425Z,20.91
2023-05-13T09:52:57.833Z,20.84
2023-05-13T09:55:24.245Z,21.00
2023-05-13T09:57:53.189Z,20.91
2023-05-13T10:00:31.717Z,21.09
2023-05-13T10:02:59.022Z,21.11
2023-05-13T10:05:26.079Z,21.01
2023-05-13T10:07:52.695Z,21.24
2023-05-13T10:10:20.003Z,21.03
2023-05-13T10:12:46.941Z,21.08
2023-05-13T10:15:13.841Z,21.12
2023-05-13T10:17:41.446Z,21.21
2023-05-13T10:20:08.369Z,21.24
2023-05-13T10:22:34.861Z,21.40
2023-05-13T10:25:02.987Z,21.43
2023-05-13T10:27:33.570Z,21.33
2023-05-13T10:30:03.556Z,21.20
2023-05-13T10:32:31.534Z,21.24
2023-05-13T10:35:08.827Z,21.36
2023-05-13T10:37:50.122Z,21.22
2023-05-13T10:40:31.632Z,21.72
2023-05-13T10:43:17.093Z,21.82
2023-05-13T10:45:51.858Z,21.70
2023-05-13T10:48:18.909Z,21.73
2023-05-13T10:51:01.410Z,21.85
2023-05-13T10:53:36.104Z,22.08
2023-05-13T10:56:07.740Z,21.65
2023-05-13T10:58:39.202Z,21.66
2023-05-13T11:01:19.427Z,21.90
2023-05-13T11:03:54.230Z,21.83
2023-05-13T11:06:23.744Z,22.09
2023-05-13T11:08:53.588Z,21.89
2023-05-13T11:11:22.354Z,21.86
2023-05-13T11:13:52.394Z,22.00
2023-05-13T11:16:18.836Z,22.00
2023-05-13T11:18:45.316Z,22.38
2023-05-13T11:21:11.735Z,22.26
2023-05-13T11:23:56.991Z,22.24
2023-05-13T11:26:23.503Z,22.54
2023-05-13T11:28:54.063Z,22.33
2023-05-13T11:31:21.504Z,22.89
2023-05-13T11:34:09.681Z,22.99
2023-05-13T11:36:37.861Z,22.72
2023-05-13T11:39:14.621Z,22.59
2023-05-13T11:41:43.263Z,22.77
2023-05-13T11:44:11.274Z,23.08
2023-05-13T11:46:37.640Z,23.23
2023-05-13T11:49:06.494Z,22.52
2023-05-13T11:51:34.211Z,22.49
2023-05-13T11:54:03.075Z,22.57
2023-05-13T11:56:30.092Z,22.61
2023-05-13T11:59:14.242Z,23.08
2023-05-13T12:01:40.605Z,23.17
2023-05-13T12:04:07.869Z,23.30
2023-05-13T12:06:35.324Z,23.48
2023-05-13T12:09:06.688Z,23.40
2023-05-13T12:11:33.882Z,23.45
2023-05-13T12:14:00.992Z,23.64
2023-05-13T12:16:27.510Z,23.63
2023-05-13T12:19:04.621Z,23.83
2023-05-13T12:21:32.357Z,24.09
2023-05-13T12:23:58.956Z,23.79
2023-05-13T12:26:25.942Z,24.23
2023-05-13T12:28:59.569Z,24.26
2023-05-13T12:31:26.358Z,23.88
2023-05-13T12:33:53.084Z,23.59
2023-05-13T12:36:23.165Z,24.04
2023-05-13T12:39:07.574Z,24.05
2023-05-13T12:41:36.412Z,24.39
2023-05-13T12:44:11.349Z,24.25
2023-05-13T12:46:37.980Z,23.93
2023-05-13T12:49:05.836Z,24.11
2023-05-13T12:51:35.121Z,24.05
2023-05-13T12:54:01.685Z,24.10
2023-05-13T12:56:28.065Z,24.81
2023-05-13T12:58:54.470Z,25.18
2023-05-13T13:01:21.467Z,25.02
2023-05-13T13:03:48.070Z,25.36
2023-05-13T13:06:14.951Z,25.58
2023-05-13T13:08:41.385Z,25.68
2023-05-13T13:11:07.808Z,26.47
2023-05-13T13:13:34.570Z,26.85
2023-05-13T13:16:02.036Z,26.98
2023-05-13T13:18:28.546Z,26.38
2023-05-13T13:20:55.278Z,27.04
2023-05-13T13:23:21.846Z,27.38
2023-05-13T13:25:48.303Z,28.53
2023-05-13T13:28:14.704Z,28.94
2023-05-13T13:30:46.297Z,27.84
2023-05-13T13:33:14.890Z,29.13
2023-05-13T13:35:43.482Z,27.24
2023-05-13T13:38:10.034Z,25.57
2023-05-13T13:40:36.739Z,25.66
2023-05-13T13:43:04.102Z,29.34
2023-05-13T13:45:31.251Z,25.62
2023-05-13T13:47:58.207Z,24.99
2023-05-13T13:50:24.759Z,25.26
2023-05-13T13:52:52.413Z,25.37
2023-05-13T13:55:22.632Z,31.82
2023-05-13T13:57:49.092Z,31.72
2023-05-13T14:00:16.617Z,28.77
2023-05-13T14:02:43.796Z,28.47
2023-05-13T14:05:11.586Z,27.49
2023-05-13T14:07:38.106Z,29.94
2023-05-13T14:10:05.549Z,28.20
2023-05-13T14:12:31.972Z,28.82
2023-05-13T14:14:58.639Z,33.83
2023-05-13T14:17:25.080Z,35.32
2023-05-13T14:19:51.784Z,29.19
2023-05-13T14:22:18.334Z,27.49
2023-05-13T14:24:44.706Z,33.35
2023-05-13T14:27:11.086Z,34.77
2023-05-13T14:29:37.663Z,35.38
2023-05-13T14:32:04.447Z,35.09
2023-05-13T14:34:32.895Z,34.49
2023-05-13T14:36:59.338Z,30.83
2023-05-13T14:39:25.743Z,27.26
2023-05-13T14:41:52.154Z,26.94
2023-05-13T14:44:18.530Z,31.23
2023-05-13T14:46:45.188Z,34.90
2023-05-13T14:49:11.606Z,36.71
2023-05-13T14:51:37.970Z,35.60
2023-05-13T14:54:04.468Z,35.94
2023-05-13T14:56:30.840Z,36.38
2023-05-13T14:58:57.794Z,38.10
2023-05-13T15:01:24.284Z,36.97
2023-05-13T15:03:50.690Z,36.96
2023-05-13T15:06:17.089Z,36.84
2023-05-13T15:08:43.536Z,34.82
2023-05-13T15:11:09.916Z,28.52
2023-05-13T15:13:37.165Z,27.70
2023-05-13T15:16:04.414Z,32.09
2023-05-13T15:18:31.379Z,33.15
2023-05-13T15:20:57.913Z,34.69
2023-05-13T15:23:24.272Z,37.27
2023-05-13T15:25:51.227Z,38.38
2023-05-13T15:28:17.592Z,35.03
2023-05-13T15:30:43.979Z,38.53
2023-05-13T15:33:10.390Z,39.54
2023-05-13T15:35:36.810Z,39.22
2023-05-13T15:38:03.418Z,34.44
2023-05-13T15:40:29.955Z,35.35
2023-05-13T15:42:56.461Z,35.46
2023-05-13T15:45:22.848Z,36.38
2023-05-13T15:47:50.463Z,36.52
2023-05-13T15:50:16.957Z,36.10
2023-05-13T15:52:43.415Z,36.42
2023-05-13T15:55:09.805Z,34.51
2023-05-13T15:57:36.312Z,36.46
2023-05-13T16:00:02.693Z,30.91
2023-05-13T16:02:36.385Z,29.29
2023-05-13T16:05:02.994Z,27.07
2023-05-13T16:07:29.379Z,26.77
2023-05-13T16:09:56.011Z,26.13
2023-05-13T16:12:22.385Z,24.96
2023-05-13T16:14:48.827Z,24.85
2023-05-13T16:17:16.106Z,24.60
2023-05-13T16:19:42.476Z,24.04
2023-05-13T16:22:44.436Z,23.81
2023-05-13T16:25:11.475Z,23.11
2023-05-13T16:27:39.317Z,23.75
2023-05-13T16:30:07.466Z,23.89
2023-05-13T16:32:34.839Z,23.55
2023-05-13T16:35:01.632Z,23.46
2023-05-13T16:37:28.366Z,22.83
2023-05-13T16:39:54.783Z,22.66
2023-05-13T16:42:21.166Z,22.55
2023-05-13T16:44:47.748Z,22.56
2023-05-13T16:47:14.428Z,22.83
2023-05-13T16:49:41.079Z,22.47
2023-05-13T16:52:07.721Z,23.86
2023-05-13T16:54:34.237Z,25.79
2023-05-13T16:57:00.709Z,25.37
2023-05-13T16:59:27.698Z,27.02
2023-05-13T17:01:54.769Z,27.30
2023-05-13T17:04:21.483Z,23.65
2023-05-13T17:06:47.923Z,22.94
2023-05-13T17:09:14.557Z,23.49
2023-05-13T17:11:41.102Z,23.60
2023-05-13T17:14:07.633Z,22.93
2023-05-13T17:16:34.258Z,22.80
2023-05-13T17:19:00.800Z,23.38
2023-05-13T17:21:27.271Z,22.85
2023-05-13T17:23:54.084Z,23.01
2023-05-13T17:26:21.951Z,25.84
2023-05-13T17:28:49.709Z,26.18
2023-05-13T17:31:16.374Z,24.68
2023-05-13T17:33:42.958Z,23.81
2023-05-13T17:36:09.761Z,23.15
2023-05-13T17:38:37.062Z,22.53
2023-05-13T17:41:03.656Z,21.96
2023-05-13T17:43:30.129Z,22.28
2023-05-13T17:45:56.874Z,21.40
2023-05-13T17:48:23.470Z,21.38
2023-05-13T17:50:49.979Z,21.45
2023-05-13T17:53:16.410Z,21.78
2023-05-13T17:55:42.942Z,21.51
2023-05-13T17:58:09.339Z,21.64
2023-05-13T18:00:35.886Z,21.65
2023-05-13T18:03:02.320Z,21.87
2023-05-13T18:05:28.831Z,21.52
2023-05-13T18:07:56.761Z,20.86
2023-05-13T18:10:23.592Z,21.04
2023-05-13T18:12:51.783Z,20.89
2023-05-13T18:15:18.514Z,20.68
2023-05-13T18:17:45.186Z,20.64
2023-05-13T18:20:12.458Z,20.55
2023-05-13T18:22:39.088Z,20.44
2023-05-13T18:25:07.266Z,20.22
2023-05-13T18:27:34.385Z,20.21
2023-05-13T18:30:01.158Z,20.10
2023-05-13T18:32:27.555Z,20.22
2023-05-13T18:34:53.986Z,19.81
2023-05-13T18:37:20.377Z,19.80
2023-05-13T18:39:46.832Z,19.66
2023-05-13T18:42:13.240Z,19.41
2023-05-13T18:44:39.674Z,19.35
2023-05-13T18:47:06.535Z,19.04
2023-05-13T18:49:33.078Z,19.24
2023-05-13T18:52:00.413Z,18.91
2023-05-13T18:54:29.369Z,19.00
2023-05-13T18:56:59.119Z,18.93
2023-05-13T18:59:25.836Z,18.89
2023-05-13T19:01:52.470Z,18.99
2023-05-13T19:04:19.225Z,18.69
2023-05-13T19:06:45.930Z,18.62
2023-05-13T19:09:12.334Z,18.65
2023-05-13T19:11:38.837Z,18.61
2023-05-13T19:14:05.574Z,18.56
2023-05-13T19:16:32.196Z,18.46
2023-05-13T19:18:58.792Z,18.72
2023-05-13T19:21:25.442Z,18.42
2023-05-13T19:23:51.882Z,18.50
2023-05-13T19:26:18.613Z,18.54
2023-05-13T19:28:45.865Z,18.45
2023-05-13T19:31:12.379Z,18.62
2023-05-13T19:33:42.916Z,18.49
2023-05-13T19:36:10.721Z,18.39
2023-05-13T19:38:37.080Z,18.16
2023-05-13T19:41:03.680Z,18.32
2023-05-13T19:43:30.051Z,18.01
2023-05-13T19:45:57.759Z,18.10
2023-05-13T19:48:24.125Z,18.21
2023-05-13T19:50:53.553Z,17.98
2023-05-13T19:53:21.631Z,17.79
2023-05-13T19:55:48.029Z,18.02
2023-05-13T19:58:14.452Z,17.93
2023-05-13T20:00:40.842Z,17.83
2023-05-13T20:03:07.442Z,18.06
2023-05-13T20:05:33.890Z,17.97
2023-05-13T20:08:00.398Z,17.75
2023-05-13T20:10:26.771Z,17.93
2023-05-13T20:12:53.260Z,17.90
2023-05-13T20:15:19.724Z,17.90
2023-05-13T20:17:46.190Z,17.76
2023-05-13T20:20:12.624Z,17.93
2023-05-13T20:22:39.060Z,17.87
2023-05-13T20:25:05.783Z,17.72
2023-05-13T20:27:32.171Z,17.63
2023-05-13T20:30:00.116Z,17.67
2023-05-13T20:32:26.583Z,17.75
2023-05-13T20:34:54.339Z,17.51
2023-05-13T20:37:23.943Z,17.42
2023-05-13T20:39:50.726Z,17.58
2023-05-13T20:42:17.267Z,17.35
2023-05-13T20:44:45.839Z,17.33
2023-05-13T20:47:12.250Z,17.23
2023-05-13T20:49:39.779Z,17.43
2023-05-13T20:52:08.491Z,17.43
2023-05-13T20:54:36.370Z,17.26
2023-05-13T20:57:03.445Z,17.15
2023-05-13T20:59:30.762Z,17.35
2023-05-13T21:01:57.529Z,17.25
2023-05-13T21:04:25.480Z,16.98
2023-05-13T21:06:52.465Z,17.00
2023-05-13T21:09:18.860Z,17.19
2023-05-13T21:11:45.788Z,17.08
2023-05-13T21:14:12.233Z,17.06
2023-05-13T21:16:38.606Z,16.91
2023-05-13T21:19:05.148Z,17.04
2023-05-13T21:21:32.085Z,16.96
2023-05-13T21:23:58.515Z,17.01
2023-05-13T21:26:25.183Z,16.99
2023-05-13T21:28:51.624Z,16.70
2023-05-13T21:31:18.014Z,17.01
2023-05-13T21:33:44.428Z,17.05
2023-05-13T21:36:10.824Z,16.67
2023-05-13T21:38:37.173Z,16.72
2023-05-13T21:41:03.600Z,16.53
2023-05-13T21:43:30.084Z,16.60
2023-05-13T21:45:56.455Z,16.58
2023-05-13T21:48:22.917Z,16.51
2023-05-13T21:50:49.330Z,16.76
2023-05-13T21:53:15.708Z,16.71
2023-05-13T21:55:42.096Z,16.48
2023-05-13T21:58:08.499Z,16.36
2023-05-13T22:00:34.908Z,16.40
2023-05-13T22:03:01.730Z,16.30
2023-05-13T22:05:28.387Z,16.33
2023-05-13T22:07:55.093Z,16.35
2023-05-13T22:10:21.725Z,16.29
2023-05-13T22:12:48.421Z,16.49
2023-05-13T22:15:14.856Z,16.36
2023-05-13T22:17:41.400Z,16.42
2023-05-13T22:20:08.306Z,16.46
2023-05-13T22:22:34.713Z,16.35
2023-05-13T22:25:01.105Z,16.23
2023-05-13T22:27:27.472Z,16.11
2023-05-13T22:29:53.855Z,16.17
2023-05-13T22:32:20.256Z,16.05
2023-05-13T22:34:46.655Z,16.31
2023-05-13T22:37:13.024Z,16.24
2023-05-13T22:39:39.418Z,15.88
2023-05-13T22:42:05.988Z,15.97
2023-05-13T22:44:32.394Z,16.05
2023-05-13T22:46:58.795Z,15.87
2023-05-13T22:49:25.290Z,16.10
2023-05-13T22:51:51.905Z,16.12
2023-05-13T22:54:18.281Z,15.91
2023-05-13T22:56:44.693Z,15.87
2023-05-13T22:59:11.711Z,15.98
2023-05-13T23:01:38.187Z,15.96
2023-05-13T23:04:05.700Z,15.98
2023-05-13T23:06:32.249Z,15.78
2023-05-13T23:08:58.667Z,16.18
2023-05-13T23:11:25.068Z,16.27
2023-05-13T23:13:51.461Z,16.16
2023-05-13T23:16:19.093Z,16.33
2023-05-13T23:18:45.686Z,16.11
2023-05-13T23:21:12.145Z,15.93
2023-05-13T23:23:38.497Z,15.97
2023-05-13T23:26:05.813Z,15.98
2023-05-13T23:28:32.902Z,16.03
2023-05-13T23:30:59.297Z,15.73
2023-05-13T23:33:25.678Z,15.72
2023-05-13T23:35:56.208Z,15.74
2023-05-13T23:38:23.081Z,15.67
2023-05-13T23:40:49.452Z,15.66
2023-05-13T23:43:16.151Z,15.58
2023-05-13T23:45:42.612Z,15.59
2023-05-13T23:48:09.217Z,15.63
2023-05-13T23:50:35.672Z,15.49
2023-05-13T23:53:02.036Z,15.92
2023-05-13T23:55:28.400Z,15.50
2023-05-13T23:57:55.088Z,15.61
